Time;durP1;ratioP1;P1;durP2;ratioP2;P2;SDS_P1;SDS_P2;PMS_P1;PMS_P2;Temp;Humidity;BMP_temperature;BMP_pressure;BME280_temperature;BME280_humidity;BME280_pressure;Samples;Min_cycle;Max_cycle;Signal;HPM_P1;HPM_P2
2022/11/30 00:00:19;;;;;;;0.60;0.60;;;2.10;99.90;;;;;;5113593;28;20540;-83
2022/11/30 00:02:45;;;;;;;0.52;0.52;;;2.10;99.90;;;;;;5094978;28;20204;-83
2022/11/30 00:05:11;;;;;;;0.70;0.70;;;2.10;99.90;;;;;;5095200;28;20199;-83
2022/11/30 00:07:37;;;;;;;0.60;0.60;;;2.10;99.90;;;;;;5113292;28;20244;-83
2022/11/30 00:10:03;;;;;;;0.50;0.50;;;2.10;99.90;;;;;;5095362;28;20567;-83
2022/11/30 00:12:29;;;;;;;0.60;0.60;;;2.10;99.90;;;;;;5113115;28;20312;-83
2022/11/30 00:14:55;;;;;;;0.50;0.50;;;2.10;99.90;;;;;;5113356;28;20179;-83
2022/11/30 00:17:20;;;;;;;0.50;0.50;;;2.10;99.90;;;;;;5113176;28;20187;-83
2022/11/30 00:19:46;;;;;;;0.60;0.60;;;2.10;99.90;;;;;;5113355;28;20198;-83
2022/11/30 00:22:11;;;;;;;0.60;0.60;;;2.10;99.90;;;;;;5109126;28;20204;-83
2022/11/30 00:24:37;;;;;;;0.50;0.50;;;2.10;99.90;;;;;;5112568;28;20271;-83
2022/11/30 00:27:03;;;;;;;0.52;0.52;;;2.10;99.90;;;;;;5095215;28;20273;-83
2022/11/30 00:29:28;;;;;;;0.60;0.60;;;2.10;99.90;;;;;;5094703;28;20200;-79
2022/11/30 00:31:54;;;;;;;0.85;0.80;;;2.10;99.90;;;;;;5112863;28;20678;-79
2022/11/30 00:34:20;;;;;;;0.50;0.50;;;2.10;99.90;;;;;;5112890;28;20722;-80
2022/11/30 00:36:45;;;;;;;0.60;0.60;;;2.10;99.90;;;;;;5094512;28;20203;-79
2022/11/30 00:39:12;;;;;;;0.60;0.60;;;2.10;99.90;;;;;;5094576;28;20241;-79
2022/11/30 00:41:38;;;;;;;0.90;0.90;;;2.00;99.90;;;;;;5112678;28;20256;-79
2022/11/30 00:44:04;;;;;;;0.70;0.70;;;2.10;99.90;;;;;;5112900;28;20650;-79
2022/11/30 00:46:29;;;;;;;0.57;0.57;;;2.10;99.90;;;;;;5111108;28;20200;-80
2022/11/30 00:48:55;;;;;;;0.80;0.80;;;2.00;99.90;;;;;;5112823;28;20231;-79
2022/11/30 00:51:21;;;;;;;0.50;0.50;;;2.00;99.90;;;;;;5114338;28;20248;-79
2022/11/30 00:53:47;;;;;;;0.60;0.60;;;2.10;99.90;;;;;;5116747;28;20187;-79
2022/11/30 00:56:13;;;;;;;0.60;0.60;;;2.10;99.90;;;;;;5115214;28;20278;-80
2022/11/30 00:58:39;;;;;;;0.65;0.65;;;2.00;99.90;;;;;;5114770;28;20192;-79
2022/11/30 01:01:06;;;;;;;0.60;0.60;;;2.10;99.90;;;;;;5116475;28;20532;-79
2022/11/30 01:03:32;;;;;;;0.70;0.70;;;2.10;99.90;;;;;;5116135;28;20191;-79
2022/11/30 01:06:05;;;;;;;0.55;0.55;;;2.00;99.90;;;;;;5098022;28;20219;-79
2022/11/30 01:08:32;;;;;;;0.60;0.60;;;2.10;99.90;;;;;;5097781;28;20300;-79
2022/11/30 01:11:08;;;;;;;0.57;0.57;;;2.00;99.90;;;;;;5097776;28;20550;-80
2022/11/30 01:13:34;;;;;;;0.60;0.60;;;2.10;99.90;;;;;;5097713;28;20199;-80
2022/11/30 01:15:59;;;;;;;0.82;0.82;;;2.00;99.90;;;;;;5116214;28;20324;-79
2022/11/30 01:18:25;;;;;;;0.60;0.60;;;2.10;99.90;;;;;;5116076;28;20210;-79
2022/11/30 01:20:51;;;;;;;0.60;0.60;;;2.10;99.90;;;;;;5115883;28;20195;-79
2022/11/30 01:23:16;;;;;;;0.57;0.57;;;2.10;99.90;;;;;;5089300;28;20656;-79
2022/11/30 01:25:42;;;;;;;0.70;0.70;;;2.10;99.90;;;;;;5093104;28;20192;-79
2022/11/30 01:28:09;;;;;;;0.60;0.60;;;2.10;99.90;;;;;;5077523;28;20204;-79
2022/11/30 01:30:35;;;;;;;0.50;0.50;;;2.00;99.90;;;;;;5095145;28;20673;-79
2022/11/30 01:33:02;;;;;;;0.57;0.57;;;2.00;99.90;;;;;;5094085;28;20204;-79
2022/11/30 01:35:28;;;;;;;0.70;0.70;;;2.00;99.90;;;;;;5093972;28;20192;-79
2022/11/30 01:37:53;;;;;;;0.50;0.50;;;2.00;99.90;;;;;;5094981;28;20215;-79
2022/11/30 01:40:19;;;;;;;0.55;0.55;;;2.00;99.90;;;;;;5111423;28;20252;-80
2022/11/30 01:42:46;;;;;;;0.60;0.60;;;2.00;99.90;;;;;;5097218;28;20245;-79
2022/11/30 01:45:11;;;;;;;0.70;0.70;;;2.00;99.90;;;;;;5097463;28;20209;-79
2022/11/30 01:47:41;;;;;;;0.60;0.60;;;2.10;99.90;;;;;;5115138;28;20337;-80
2022/11/30 01:50:11;;;;;;;0.60;0.60;;;2.10;99.90;;;;;;5115497;28;20242;-79
2022/11/30 01:52:45;;;;;;;0.63;0.63;;;2.10;99.90;;;;;;5096801;28;20295;-79
2022/11/30 01:55:22;;;;;;;1.10;0.77;;;2.10;99.90;;;;;;5115234;28;20662;-79
2022/11/30 01:58:01;;;;;;;0.60;0.60;;;2.00;99.90;;;;;;5115385;28;20712;-79
2022/11/30 02:00:26;;;;;;;0.70;0.70;;;2.00;99.90;;;;;;5115040;28;20556;-79
2022/11/30 02:03:02;;;;;;;0.57;0.57;;;2.10;99.90;;;;;;5114118;28;20195;-79
2022/11/30 02:05:28;;;;;;;0.70;0.70;;;2.10;99.90;;;;;;5096795;28;20206;-79
2022/11/30 02:07:54;;;;;;;0.60;0.60;;;2.10;99.90;;;;;;5115211;28;20243;-79
2022/11/30 02:10:28;;;;;;;0.63;0.63;;;2.10;99.90;;;;;;5096880;28;20191;-80
2022/11/30 02:13:25;;;;;;;0.70;0.70;;;2.10;99.90;;;;;;5115081;28;20355;-79
2022/11/30 02:16:06;;;;;;;0.60;0.60;;;2.10;99.90;;;;;;5096421;28;20218;-80
2022/11/30 02:18:54;;;;;;;0.60;0.60;;;2.10;99.90;;;;;;5114824;28;20223;-80
2022/11/30 02:21:40;;;;;;;0.60;0.60;;;2.10;99.90;;;;;;5115105;28;20658;-80
2022/11/30 02:24:06;;;;;;;0.60;0.60;;;2.10;99.90;;;;;;5102585;28;20192;-79
2022/11/30 02:27:05;;;;;;;0.70;0.70;;;2.10;99.90;;;;;;5093982;28;20200;-79
2022/11/30 02:29:40;;;;;;;0.60;0.60;;;2.10;99.90;;;;;;5094177;28;20194;-79
2022/11/30 02:32:32;;;;;;;0.50;0.50;;;2.10;99.90;;;;;;5092861;28;20229;-80
2022/11/30 02:35:01;;;;;;;1.20;0.88;;;2.10;99.90;;;;;;5075931;28;20196;-79
2022/11/30 02:37:28;;;;;;;0.95;0.95;;;2.10;99.90;;;;;;5094113;28;20667;-79
2022/11/30 02:39:54;;;;;;;0.60;0.60;;;2.10;99.90;;;;;;5094108;28;20219;-79
2022/11/30 02:42:20;;;;;;;0.60;0.60;;;2.10;99.90;;;;;;5093838;28;20212;-80
2022/11/30 02:44:49;;;;;;;0.60;0.60;;;2.10;99.90;;;;;;5114015;28;20198;-79
2022/11/30 02:47:30;;;;;;;0.60;0.60;;;2.10;99.90;;;;;;5113085;28;20199;-79
2022/11/30 02:50:20;;;;;;;0.70;0.70;;;2.00;99.90;;;;;;5113022;28;20685;-80
2022/11/30 02:52:48;;;;;;;0.60;0.60;;;2.10;99.90;;;;;;5113987;28;20295;-79
2022/11/30 02:55:17;;;;;;;0.60;0.60;;;2.10;99.90;;;;;;5096003;28;20629;-80
2022/11/30 02:57:43;;;;;;;0.50;0.50;;;2.10;99.90;;;;;;5113923;28;20245;-80
2022/11/30 03:00:10;;;;;;;0.70;0.70;;;2.00;99.90;;;;;;5113950;28;20187;-80
2022/11/30 03:02:37;;;;;;;0.70;0.70;;;2.00;99.90;;;;;;5094847;28;20651;-79
2022/11/30 03:05:04;;;;;;;1.02;1.02;;;2.00;99.90;;;;;;5114063;28;20715;-79
2022/11/30 03:07:29;;;;;;;0.45;0.45;;;2.00;99.90;;;;;;5113784;28;20662;-79
2022/11/30 03:09:55;;;;;;;0.65;0.65;;;2.10;99.90;;;;;;5114011;28;20205;-80
2022/11/30 03:12:21;;;;;;;0.57;0.57;;;2.10;99.90;;;;;;5094997;28;20286;-80
2022/11/30 03:14:47;;;;;;;0.60;0.60;;;2.10;99.90;;;;;;5113726;28;20271;-80
2022/11/30 03:17:12;;;;;;;0.60;0.60;;;2.10;99.90;;;;;;5113938;28;20195;-79
2022/11/30 03:19:38;;;;;;;0.70;0.70;;;2.10;99.90;;;;;;5113841;28;20531;-79
2022/11/30 03:22:04;;;;;;;0.60;0.60;;;2.10;99.90;;;;;;5095857;28;20260;-79
2022/11/30 03:24:29;;;;;;;0.65;0.65;;;2.10;99.90;;;;;;5098037;28;20672;-79
2022/11/30 03:26:55;;;;;;;0.63;0.63;;;2.10;99.90;;;;;;5093420;28;20581;-81
2022/11/30 03:29:21;;;;;;;0.70;0.70;;;2.00;99.90;;;;;;5075042;28;20273;-78
2022/11/30 03:31:46;;;;;;;0.60;0.60;;;2.00;99.90;;;;;;5106776;28;20203;-77
2022/11/30 03:34:12;;;;;;;0.60;0.60;;;2.00;99.90;;;;;;5113597;28;20183;-78
2022/11/30 03:36:38;;;;;;;0.60;0.60;;;2.00;99.90;;;;;;5078207;28;20199;-78
2022/11/30 03:39:03;;;;;;;0.60;0.60;;;2.10;99.90;;;;;;5113287;28;20234;-79
2022/11/30 03:41:29;;;;;;;0.50;0.50;;;2.10;99.90;;;;;;5094987;28;20271;-77
2022/11/30 03:43:55;;;;;;;0.57;0.57;;;2.10;99.90;;;;;;5095231;28;20219;-78
2022/11/30 03:46:21;;;;;;;0.50;0.50;;;2.10;99.90;;;;;;5113224;28;20674;-80
2022/11/30 03:48:47;;;;;;;0.70;0.70;;;2.00;99.90;;;;;;5094806;28;20223;-78
2022/11/30 03:51:13;;;;;;;0.60;0.60;;;2.00;99.90;;;;;;5113565;28;20209;-77
2022/11/30 03:53:40;;;;;;;0.50;0.50;;;2.00;99.90;;;;;;5094956;28;20191;-78
2022/11/30 03:56:08;;;;;;;0.60;0.60;;;2.00;99.90;;;;;;5113469;28;20184;-77
2022/11/30 03:58:34;;;;;;;0.70;0.70;;;2.00;99.90;;;;;;5113092;28;20184;-77
2022/11/30 04:01:09;;;;;;;0.63;0.63;;;2.00;99.90;;;;;;5086939;28;20200;-79
2022/11/30 04:03:35;;;;;;;0.50;0.50;;;2.10;99.90;;;;;;5102260;28;20236;-77
2022/11/30 04:06:02;;;;;;;0.50;0.50;;;2.10;99.90;;;;;;5111402;28;20605;-77
2022/11/30 04:08:29;;;;;;;0.57;0.57;;;2.00;99.90;;;;;;5107296;28;20192;-78
2022/11/30 04:10:56;;;;;;;0.70;0.70;;;2.10;99.90;;;;;;5095037;28;20290;-77
2022/11/30 04:13:23;;;;;;;0.60;0.60;;;2.00;99.90;;;;;;5095046;28;20215;-78
2022/11/30 04:15:50;;;;;;;0.80;0.80;;;2.10;99.90;;;;;;5094849;28;20532;-77
2022/11/30 04:18:17;;;;;;;0.40;0.40;;;2.00;99.90;;;;;;5113094;28;20226;-79
2022/11/30 04:20:43;;;;;;;0.60;0.60;;;2.10;99.90;;;;;;5112817;28;20266;-77
2022/11/30 04:23:10;;;;;;;0.55;0.55;;;2.10;99.90;;;;;;5109030;28;20224;-77
2022/11/30 04:25:40;;;;;;;0.70;0.70;;;2.10;99.90;;;;;;5076609;28;20196;-77
2022/11/30 04:28:06;;;;;;;0.70;0.70;;;2.10;99.90;;;;;;5096683;28;20564;-77
2022/11/30 04:30:34;;;;;;;0.60;0.60;;;2.10;99.90;;;;;;5096513;28;20196;-78
2022/11/30 04:32:59;;;;;;;0.80;0.80;;;2.10;99.90;;;;;;5078375;28;20291;-78
2022/11/30 04:35:26;;;;;;;0.52;0.52;;;2.00;99.90;;;;;;5104929;28;20255;-77
2022/11/30 04:37:52;;;;;;;0.40;0.40;;;2.10;99.90;;;;;;5117669;27;20567;-80
2022/11/30 04:40:17;;;;;;;0.70;0.70;;;2.10;99.90;;;;;;5137396;27;20202;-77
2022/11/30 04:42:43;;;;;;;0.52;0.52;;;2.00;99.90;;;;;;5118596;27;20242;-78
2022/11/30 04:45:09;;;;;;;0.45;0.45;;;2.00;99.90;;;;;;5121649;27;20211;-78
2022/11/30 04:47:35;;;;;;;0.70;0.70;;;2.10;99.90;;;;;;5116535;28;20589;-78
2022/11/30 04:50:01;;;;;;;0.60;0.60;;;2.10;99.90;;;;;;5116704;28;20202;-78
2022/11/30 04:52:27;;;;;;;0.70;0.70;;;2.10;99.90;;;;;;5098038;28;20709;-78
2022/11/30 04:54:55;;;;;;;0.60;0.60;;;2.10;99.90;;;;;;5116678;28;20264;-78
2022/11/30 04:57:21;;;;;;;0.63;0.63;;;2.10;99.90;;;;;;5116491;28;20213;-78
2022/11/30 04:59:47;;;;;;;0.70;0.70;;;2.10;99.90;;;;;;5116416;28;20187;-76
2022/11/30 05:02:13;;;;;;;0.60;0.60;;;2.10;99.90;;;;;;5097983;28;20195;-77
2022/11/30 05:04:39;;;;;;;0.60;0.60;;;2.10;99.90;;;;;;5115895;28;20195;-77
2022/11/30 05:07:04;;;;;;;0.50;0.50;;;2.10;99.90;;;;;;5116332;28;20604;-77
2022/11/30 05:09:30;;;;;;;1.10;1.00;;;2.10;99.90;;;;;;5116040;28;20191;-78
2022/11/30 05:11:56;;;;;;;0.60;0.60;;;2.00;99.90;;;;;;5116102;28;20223;-78
2022/11/30 05:14:22;;;;;;;0.60;0.60;;;2.00;99.90;;;;;;5097682;28;20237;-79
2022/11/30 05:16:48;;;;;;;0.60;0.60;;;2.00;99.90;;;;;;5097810;28;20246;-78
2022/11/30 05:19:14;;;;;;;0.60;0.60;;;2.00;99.90;;;;;;5097817;28;20195;-77
2022/11/30 05:21:40;;;;;;;0.60;0.60;;;2.00;99.90;;;;;;5115348;28;20199;-78
2022/11/30 05:24:06;;;;;;;0.47;0.47;;;2.00;99.90;;;;;;5114572;28;20195;-79
2022/11/30 05:26:33;;;;;;;0.60;0.60;;;2.00;99.90;;;;;;5124199;27;20790;-77
2022/11/30 05:28:59;;;;;;;0.70;0.70;;;2.00;99.90;;;;;;5118178;27;20665;-77
2022/11/30 05:31:25;;;;;;;0.60;0.60;;;1.90;99.90;;;;;;5125896;27;20206;-78
2022/11/30 05:33:52;;;;;;;0.60;0.60;;;1.90;99.90;;;;;;5115726;28;20222;-77
2022/11/30 05:36:18;;;;;;;0.40;0.40;;;1.90;99.90;;;;;;5114553;28;20270;-77
2022/11/30 05:38:44;;;;;;;0.50;0.50;;;1.90;99.90;;;;;;5115426;28;20764;-78
2022/11/30 05:41:09;;;;;;;0.60;0.60;;;1.90;99.90;;;;;;5097135;28;20251;-78
2022/11/30 05:43:35;;;;;;;0.60;0.60;;;1.90;99.90;;;;;;5115529;28;20282;-78
2022/11/30 05:46:03;;;;;;;0.70;0.70;;;1.90;99.90;;;;;;5115780;28;20231;-79
2022/11/30 05:48:29;;;;;;;0.55;0.55;;;1.90;99.90;;;;;;5096925;28;20294;-79
2022/11/30 05:50:55;;;;;;;0.60;0.60;;;1.90;99.90;;;;;;5097301;28;20668;-78
2022/11/30 05:53:20;;;;;;;0.50;0.50;;;1.90;99.90;;;;;;5097230;28;20212;-81
2022/11/30 05:55:46;;;;;;;0.50;0.50;;;1.90;99.90;;;;;;5115444;28;20194;-79
2022/11/30 05:58:12;;;;;;;0.60;0.60;;;1.90;99.90;;;;;;5115494;28;20278;-78
2022/11/30 06:00:37;;;;;;;0.50;0.50;;;2.00;99.90;;;;;;5115065;28;20203;-79
2022/11/30 06:03:03;;;;;;;0.40;0.40;;;1.90;99.90;;;;;;5115511;28;20198;-78
2022/11/30 06:05:29;;;;;;;0.60;0.60;;;1.90;99.90;;;;;;5097083;28;20195;-79
2022/11/30 06:07:57;;;;;;;0.60;0.60;;;1.90;99.90;;;;;;5115164;28;20654;-78
2022/11/30 06:10:24;;;;;;;0.40;0.40;;;1.90;99.90;;;;;;5115151;28;20677;-78
2022/11/30 06:12:50;;;;;;;0.70;0.70;;;1.90;99.90;;;;;;5115019;28;20683;-79
2022/11/30 06:15:16;;;;;;;0.50;0.50;;;1.90;99.90;;;;;;5115022;28;20188;-78
2022/11/30 06:17:42;;;;;;;0.68;0.68;;;1.90;99.90;;;;;;5114897;28;20569;-79
2022/11/30 06:20:08;;;;;;;0.43;0.43;;;2.00;99.90;;;;;;5096639;28;20204;-79
2022/11/30 06:22:34;;;;;;;0.60;0.60;;;2.00;99.90;;;;;;5096355;28;20588;-79
2022/11/30 06:24:59;;;;;;;0.70;0.70;;;2.00;99.90;;;;;;5092954;28;20203;-78
2022/11/30 06:27:29;;;;;;;0.68;0.68;;;2.00;99.90;;;;;;5093102;28;20204;-79
2022/11/30 06:29:55;;;;;;;0.50;0.50;;;2.00;99.90;;;;;;5114805;28;20191;-79
2022/11/30 06:32:21;;;;;;;1.85;1.23;;;2.00;99.90;;;;;;5096340;28;20233;-79
2022/11/30 06:34:46;;;;;;;0.52;0.52;;;2.00;99.90;;;;;;5114384;28;20194;-78
2022/11/30 06:37:12;;;;;;;0.70;0.70;;;1.90;99.90;;;;;;5114482;28;20240;-79
2022/11/30 06:39:38;;;;;;;0.60;0.60;;;2.00;99.90;;;;;;5114098;28;20284;-79
2022/11/30 06:42:03;;;;;;;0.50;0.50;;;2.00;99.90;;;;;;5114389;28;20219;-77
2022/11/30 06:44:29;;;;;;;0.47;0.47;;;2.00;99.90;;;;;;5095792;28;20289;-78
2022/11/30 06:46:55;;;;;;;0.50;0.50;;;2.00;99.90;;;;;;5114424;28;20567;-78
2022/11/30 06:49:20;;;;;;;0.70;0.70;;;2.00;99.90;;;;;;5113632;28;20206;-79
2022/11/30 06:51:46;;;;;;;0.50;0.50;;;2.00;99.90;;;;;;5095966;28;20589;-78
2022/11/30 06:54:12;;;;;;;0.60;0.60;;;2.00;99.90;;;;;;5114155;28;20219;-78
2022/11/30 06:56:38;;;;;;;0.60;0.60;;;2.10;99.90;;;;;;5095470;28;20284;-78
2022/11/30 06:59:03;;;;;;;0.55;0.55;;;2.10;99.90;;;;;;5113901;28;20553;-78
2022/11/30 07:01:29;;;;;;;0.68;0.68;;;2.10;99.90;;;;;;5095681;28;20196;-78
2022/11/30 07:03:55;;;;;;;1.25;1.15;;;2.10;99.90;;;;;;5114108;28;20183;-78
2022/11/30 07:06:20;;;;;;;0.80;0.80;;;2.10;99.90;;;;;;5113581;28;20191;-78
2022/11/30 07:08:46;;;;;;;0.60;0.60;;;2.10;99.90;;;;;;5113869;28;20193;-78
2022/11/30 07:11:12;;;;;;;0.60;0.60;;;2.10;99.90;;;;;;5114317;28;20192;-77
2022/11/30 07:13:38;;;;;;;0.60;0.60;;;2.10;99.90;;;;;;5113731;28;20326;-78
2022/11/30 07:16:09;;;;;;;0.50;0.50;;;2.10;99.90;;;;;;5114151;28;20196;-77
2022/11/30 07:18:35;;;;;;;0.63;0.63;;;2.10;99.90;;;;;;5113437;28;20600;-78
2022/11/30 07:21:03;;;;;;;0.60;0.60;;;2.10;99.90;;;;;;5113577;28;20240;-78
2022/11/30 07:26:13;;;;;;;0.70;0.70;;;2.10;99.90;;;;;;5113710;28;20244;-78
2022/11/30 07:28:43;;;;;;;0.55;0.55;;;2.10;99.90;;;;;;5113490;28;20196;-78
2022/11/30 07:31:29;;;;;;;5.43;2.00;;;2.10;99.90;;;;;;5113615;28;20609;-79
2022/11/30 07:33:56;;;;;;;3.28;1.67;;;2.10;99.90;;;;;;5095237;28;20692;-78
2022/11/30 07:36:24;;;;;;;0.68;0.68;;;2.20;99.90;;;;;;5094963;28;20666;-79
2022/11/30 07:38:52;;;;;;;1.98;1.67;;;2.20;99.90;;;;;;5094886;28;20690;-78
2022/11/30 07:41:18;;;;;;;0.70;0.70;;;2.20;99.90;;;;;;5113291;28;20331;-80
2022/11/30 07:43:44;;;;;;;0.70;0.70;;;2.20;99.90;;;;;;5095027;28;20199;-79
2022/11/30 07:46:12;;;;;;;0.98;0.98;;;2.20;99.90;;;;;;5113336;28;20681;-78
2022/11/30 07:48:38;;;;;;;1.75;1.58;;;2.20;99.90;;;;;;5113125;28;20191;-79
2022/11/30 07:51:16;;;;;;;2.40;1.45;;;2.20;99.90;;;;;;5113153;28;20535;-79
2022/11/30 07:53:42;;;;;;;1.60;1.50;;;2.20;99.90;;;;;;5112618;28;20237;-79
2022/11/30 07:56:14;;;;;;;1.02;0.98;;;2.20;99.90;;;;;;5113167;28;20244;-79
2022/11/30 07:58:40;;;;;;;0.60;0.60;;;2.20;99.90;;;;;;5112814;28;20183;-79
2022/11/30 08:01:22;;;;;;;0.77;0.77;;;2.20;99.90;;;;;;5094192;28;20199;-80
2022/11/30 08:03:50;;;;;;;0.70;0.70;;;2.30;99.90;;;;;;5113155;28;20642;-79
2022/11/30 08:06:19;;;;;;;0.70;0.70;;;2.30;99.90;;;;;;5094774;28;20191;-79
2022/11/30 08:08:46;;;;;;;0.80;0.80;;;2.20;99.90;;;;;;5094691;28;20560;-79
2022/11/30 08:11:15;;;;;;;0.70;0.70;;;2.20;99.90;;;;;;5113504;28;20278;-78
2022/11/30 08:13:42;;;;;;;0.60;0.60;;;2.30;99.90;;;;;;5094474;28;20226;-78
2022/11/30 08:16:10;;;;;;;0.50;0.50;;;2.20;99.90;;;;;;5112916;28;20195;-79
2022/11/30 08:18:36;;;;;;;0.80;0.80;;;2.30;99.90;;;;;;5112821;28;20192;-79
2022/11/30 08:21:04;;;;;;;1.00;1.00;;;2.30;99.90;;;;;;5109208;28;20207;-79
2022/11/30 08:23:37;;;;;;;0.70;0.70;;;2.30;99.90;;;;;;5090960;28;20196;-80
2022/11/30 08:26:15;;;;;;;0.60;0.60;;;2.30;99.90;;;;;;5092455;28;20666;-79
2022/11/30 08:28:42;;;;;;;2.05;1.42;;;2.30;99.90;;;;;;5095336;28;20210;-79
2022/11/30 08:31:16;;;;;;;0.90;0.90;;;2.30;99.90;;;;;;5112956;28;20219;-79
2022/11/30 08:33:42;;;;;;;1.85;1.05;;;2.30;99.90;;;;;;5113268;28;20249;-78
2022/11/30 08:36:10;;;;;;;0.60;0.60;;;2.30;99.90;;;;;;5113030;28;20211;-79
2022/11/30 08:38:37;;;;;;;0.90;0.90;;;2.30;99.90;;;;;;5094068;28;20239;-80
2022/11/30 08:41:04;;;;;;;0.50;0.50;;;2.30;99.90;;;;;;5112693;28;20619;-79
2022/11/30 08:43:30;;;;;;;3.15;1.38;;;2.30;99.90;;;;;;5112584;28;20658;-79
2022/11/30 08:45:59;;;;;;;0.50;0.50;;;2.30;99.90;;;;;;5094433;28;20201;-79
2022/11/30 08:48:24;;;;;;;0.60;0.60;;;2.30;99.90;;;;;;5094978;28;20704;-79
2022/11/30 08:50:50;;;;;;;0.70;0.70;;;2.30;99.90;;;;;;5112716;28;20223;-79
2022/11/30 08:53:16;;;;;;;0.70;0.70;;;2.30;99.90;;;;;;5112677;28;20210;-78
2022/11/30 08:55:41;;;;;;;0.70;0.70;;;2.30;99.90;;;;;;5112521;28;20218;-78
2022/11/30 08:58:07;;;;;;;0.50;0.50;;;2.30;99.90;;;;;;5112626;28;20267;-79
2022/11/30 09:00:34;;;;;;;0.57;0.57;;;2.30;99.90;;;;;;5094290;28;20558;-79
2022/11/30 09:03:00;;;;;;;0.60;0.60;;;2.30;99.90;;;;;;5094680;28;20681;-79
2022/11/30 09:05:25;;;;;;;1.10;1.05;;;2.40;99.90;;;;;;5112681;28;20228;-79
2022/11/30 09:07:51;;;;;;;0.80;0.80;;;2.40;99.90;;;;;;5112549;28;20249;-79
2022/11/30 09:10:17;;;;;;;0.60;0.60;;;2.40;99.90;;;;;;5112718;28;20191;-79
2022/11/30 09:12:43;;;;;;;0.60;0.60;;;2.50;99.90;;;;;;5097542;28;20211;-79
2022/11/30 09:15:09;;;;;;;0.60;0.60;;;2.50;99.90;;;;;;5116246;28;20271;-79
2022/11/30 09:17:35;;;;;;;0.50;0.50;;;2.50;99.90;;;;;;5114259;28;20235;-79
2022/11/30 09:20:01;;;;;;;0.60;0.60;;;2.50;99.90;;;;;;5116146;28;20195;-79
2022/11/30 09:22:27;;;;;;;0.60;0.60;;;2.50;99.90;;;;;;5097419;28;20203;-78
2022/11/30 09:24:53;;;;;;;0.50;0.50;;;2.50;99.90;;;;;;5097257;28;20192;-78
2022/11/30 09:27:19;;;;;;;0.50;0.50;;;2.50;99.90;;;;;;5115994;28;20195;-78
2022/11/30 09:29:45;;;;;;;0.52;0.52;;;2.50;99.90;;;;;;5115701;28;20190;-78
2022/11/30 09:32:10;;;;;;;0.60;0.60;;;2.50;99.90;;;;;;5115597;28;20278;-79
2022/11/30 09:34:36;;;;;;;0.82;0.82;;;2.50;99.90;;;;;;5115602;28;20198;-79
2022/11/30 09:37:02;;;;;;;0.60;0.60;;;2.50;99.90;;;;;;5097422;28;20238;-79
2022/11/30 09:39:28;;;;;;;0.63;0.60;;;2.60;99.90;;;;;;5115223;28;20250;-79
2022/11/30 09:42:16;;;;;;;0.60;0.60;;;2.60;99.90;;;;;;5097316;28;20666;-79
2022/11/30 09:45:16;;;;;;;0.70;0.70;;;2.60;99.90;;;;;;5097107;28;20195;-79
2022/11/30 09:47:52;;;;;;;0.50;0.50;;;2.60;99.90;;;;;;5094897;28;20298;-79
2022/11/30 09:50:21;;;;;;;0.70;0.70;;;2.70;99.90;;;;;;5076686;28;20286;-79
2022/11/30 09:52:54;;;;;;;0.65;0.65;;;2.70;99.90;;;;;;5076577;28;20250;-79
2022/11/30 09:55:26;;;;;;;0.65;0.65;;;2.70;99.90;;;;;;5076931;28;20242;-79
2022/11/30 09:57:55;;;;;;;0.60;0.60;;;2.70;99.90;;;;;;5076684;28;20200;-79
2022/11/30 10:00:23;;;;;;;0.50;0.50;;;2.70;99.90;;;;;;5076551;28;20272;-80
2022/11/30 10:02:51;;;;;;;0.50;0.50;;;2.70;99.90;;;;;;5076216;28;20623;-79
2022/11/30 10:05:23;;;;;;;0.95;0.95;;;2.70;99.90;;;;;;5076912;28;20196;-79
2022/11/30 10:08:06;;;;;;;0.88;0.88;;;2.80;99.90;;;;;;5076384;28;20200;-79
2022/11/30 10:10:34;;;;;;;0.50;0.50;;;2.80;99.90;;;;;;5076184;28;20695;-79
2022/11/30 10:13:22;;;;;;;0.40;0.40;;;2.80;99.90;;;;;;5099497;28;20218;-79
2022/11/30 10:15:57;;;;;;;0.50;0.50;;;2.90;99.90;;;;;;5114990;28;20184;-79
2022/11/30 10:18:47;;;;;;;0.60;0.60;;;2.90;99.90;;;;;;5114826;28;20195;-79
2022/11/30 10:21:39;;;;;;;0.60;0.60;;;2.90;99.90;;;;;;5096427;28;20670;-81
2022/11/30 10:24:30;;;;;;;0.63;0.63;;;2.90;99.90;;;;;;5101969;27;20196;-79
2022/11/30 10:26:57;;;;;;;6.18;1.77;;;2.90;99.90;;;;;;5075929;28;20565;-79
2022/11/30 10:29:43;;;;;;;0.60;0.60;;;2.90;99.90;;;;;;5094083;28;20200;-79
2022/11/30 10:32:28;;;;;;;0.50;0.50;;;2.90;99.90;;;;;;5075543;28;20307;-79
2022/11/30 10:35:00;;;;;;;0.90;0.90;;;2.90;99.90;;;;;;5094788;28;20253;-79
2022/11/30 10:37:35;;;;;;;0.60;0.60;;;2.90;99.90;;;;;;5075572;28;20242;-80
2022/11/30 10:40:03;;;;;;;0.68;0.68;;;2.90;99.90;;;;;;5093953;28;20591;-79
2022/11/30 10:42:49;;;;;;;0.70;0.70;;;2.90;99.90;;;;;;5083893;28;20192;-79
2022/11/30 10:45:23;;;;;;;0.63;0.63;;;2.90;99.90;;;;;;5095990;28;20206;-79
2022/11/30 10:48:17;;;;;;;0.60;0.60;;;2.90;99.90;;;;;;5096189;28;20196;-79
2022/11/30 10:50:43;;;;;;;0.63;0.63;;;2.80;99.90;;;;;;5095818;28;20600;-79
2022/11/30 10:53:11;;;;;;;2.67;1.95;;;2.80;99.90;;;;;;5114229;28;20256;-79
2022/11/30 10:55:43;;;;;;;0.50;0.50;;;2.80;99.90;;;;;;5114125;28;20194;-79
2022/11/30 10:58:31;;;;;;;0.45;0.45;;;2.80;99.90;;;;;;5114145;28;20321;-79
2022/11/30 11:01:08;;;;;;;0.70;0.70;;;2.80;99.90;;;;;;5095762;28;20207;-79
2022/11/30 11:03:34;;;;;;;0.50;0.50;;;2.90;99.90;;;;;;5095754;28;20195;-79
2022/11/30 11:06:17;;;;;;;0.60;0.60;;;2.80;99.90;;;;;;5095836;28;20678;-79
2022/11/30 11:08:45;;;;;;;0.50;0.50;;;2.80;99.90;;;;;;5107968;28;20299;-79
2022/11/30 11:11:34;;;;;;;0.50;0.50;;;2.80;99.90;;;;;;5095844;28;20199;-79
2022/11/30 11:14:21;;;;;;;0.60;0.60;;;2.80;99.90;;;;;;5113987;28;20692;-79
2022/11/30 11:16:53;;;;;;;0.50;0.50;;;2.90;99.90;;;;;;5113732;28;20197;-79
2022/11/30 11:19:40;;;;;;;0.75;0.75;;;2.90;99.90;;;;;;5113555;28;20306;-83
2022/11/30 11:22:19;;;;;;;0.60;0.60;;;2.90;99.90;;;;;;5114020;28;20212;-83
2022/11/30 11:24:47;;;;;;;0.80;0.80;;;2.90;99.90;;;;;;5107759;28;20199;-83
2022/11/30 11:27:28;;;;;;;0.50;0.50;;;2.90;99.90;;;;;;5113745;28;20626;-83
2022/11/30 11:30:00;;;;;;;0.60;0.60;;;3.00;99.90;;;;;;5095520;28;20202;-82
2022/11/30 11:32:26;;;;;;;0.68;0.68;;;3.00;99.90;;;;;;5113364;28;20226;-83
2022/11/30 11:34:52;;;;;;;0.60;0.60;;;3.10;99.90;;;;;;5113382;28;20222;-82
2022/11/30 11:37:31;;;;;;;0.60;0.60;;;3.10;99.90;;;;;;5095467;28;20192;-81
2022/11/30 11:40:19;;;;;;;0.70;0.70;;;3.10;99.90;;;;;;5112994;28;20223;-83
2022/11/30 11:42:51;;;;;;;0.80;0.80;;;3.10;99.90;;;;;;5095428;28;20191;-83
2022/11/30 11:45:21;;;;;;;0.60;0.60;;;3.10;99.90;;;;;;5095187;28;20195;-82
2022/11/30 11:48:08;;;;;;;0.70;0.70;;;3.10;99.90;;;;;;5113562;28;20567;-82
2022/11/30 11:50:36;;;;;;;0.80;0.80;;;3.10;99.90;;;;;;5095122;28;20195;-82
2022/11/30 11:53:21;;;;;;;0.70;0.70;;;3.10;99.90;;;;;;5113504;28;20213;-85
2022/11/30 11:55:59;;;;;;;0.60;0.60;;;3.10;99.90;;;;;;5113726;28;20604;-82
2022/11/30 11:58:47;;;;;;;0.60;0.60;;;3.10;99.90;;;;;;5113288;28;20646;-83
2022/11/30 12:01:35;;;;;;;0.50;0.50;;;3.10;99.90;;;;;;5113494;28;20734;-83
2022/11/30 12:04:34;;;;;;;0.55;0.55;;;3.10;99.90;;;;;;5094693;28;20191;-83
2022/11/30 12:07:04;;;;;;;0.63;0.63;;;3.10;99.90;;;;;;5106220;28;20300;-82
2022/11/30 12:09:36;;;;;;;0.60;0.60;;;3.10;99.90;;;;;;5113010;28;20669;-83
2022/11/30 12:12:02;;;;;;;0.60;0.60;;;3.10;99.90;;;;;;5113277;28;20674;-84
2022/11/30 12:14:30;;;;;;;0.77;0.77;;;3.10;99.90;;;;;;5113071;28;20241;-84
2022/11/30 12:17:12;;;;;;;0.60;0.60;;;3.20;99.90;;;;;;5094799;28;20735;-83
2022/11/30 12:20:20;;;;;;;0.40;0.40;;;3.20;99.90;;;;;;5094826;28;20199;-83
2022/11/30 12:23:03;;;;;;;0.60;0.60;;;3.20;99.90;;;;;;5112025;28;20662;-82
2022/11/30 12:25:39;;;;;;;0.50;0.50;;;3.30;99.90;;;;;;5092808;28;20716;-83
2022/11/30 12:28:23;;;;;;;0.50;0.50;;;3.30;99.90;;;;;;5092602;28;20578;-84
2022/11/30 12:31:12;;;;;;;0.50;0.50;;;3.20;99.90;;;;;;5074567;28;20200;-82
2022/11/30 12:34:05;;;;;;;0.60;0.60;;;3.30;99.90;;;;;;5086241;28;20671;-82
2022/11/30 12:36:53;;;;;;;0.65;0.65;;;3.30;99.90;;;;;;5092567;28;20185;-82
2022/11/30 12:39:43;;;;;;;0.50;0.50;;;3.30;99.90;;;;;;5092657;28;20303;-83
2022/11/30 12:42:41;;;;;;;0.70;0.70;;;3.30;99.90;;;;;;5074716;28;20647;-84
2022/11/30 12:45:33;;;;;;;0.50;0.50;;;3.30;99.90;;;;;;5092928;28;20563;-84
2022/11/30 12:48:25;;;;;;;0.50;0.50;;;3.30;99.90;;;;;;5096430;28;20228;-84
2022/11/30 12:51:17;;;;;;;2.65;2.15;;;3.20;99.90;;;;;;5096376;28;20192;-83
2022/11/30 12:54:13;;;;;;;0.50;0.50;;;3.30;99.90;;;;;;5103218;28;20233;-83
2022/11/30 12:56:42;;;;;;;0.50;0.50;;;3.20;99.90;;;;;;5098300;28;20304;-84
2022/11/30 12:59:32;;;;;;;0.60;0.60;;;3.20;99.90;;;;;;5116660;28;20287;-82
2022/11/30 13:02:25;;;;;;;0.60;0.60;;;3.20;99.90;;;;;;5116580;28;20605;-83
2022/11/30 13:05:01;;;;;;;0.47;0.47;;;3.20;99.90;;;;;;5116571;28;20195;-83
2022/11/30 13:07:38;;;;;;;0.60;0.60;;;3.10;99.90;;;;;;5116352;28;20260;-84
2022/11/30 13:10:33;;;;;;;1.35;1.27;;;3.10;99.90;;;;;;5116411;28;20611;-83
2022/11/30 13:13:03;;;;;;;0.95;0.95;;;3.10;99.90;;;;;;5111260;28;20231;-84
2022/11/30 13:15:32;;;;;;;0.65;0.65;;;3.10;99.90;;;;;;5116835;28;20187;-84
2022/11/30 13:18:00;;;;;;;0.50;0.50;;;3.00;99.90;;;;;;5116560;28;20266;-84